Time;durP1;ratioP1;P1;durP2;ratioP2;P2;SDS_P1;SDS_P2;PMS_P1;PMS_P2;Temp;Humidity;BMP_temperature;BMP_pressure;BME280_temperature;BME280_humidity;BME280_pressure;Samples;Min_cycle;Max_cycle;Signal;HPM_P1;HPM_P2
2022/05/04 00:00:24;;;;;;;20.73;7.00;;;;;;;;;;5025676;28;20045;-80
2022/05/04 00:02:52;;;;;;;19.48;5.75;;;;;;;;;;5040963;28;20053;-80
2022/05/04 00:05:19;;;;;;;13.77;5.25;;;;;;;;;;5047800;28;20073;-80
2022/05/04 00:07:46;;;;;;;18.80;6.28;;;;;;;;;;5033494;28;20084;-81
2022/05/04 00:10:14;;;;;;;15.73;5.72;;;;;;;;;;5039575;28;20072;-80
2022/05/04 00:12:42;;;;;;;16.88;4.93;;;;;;;;;;5050907;28;20095;-81
2022/05/04 00:15:10;;;;;;;13.35;4.97;;;;;;;;;;5052430;28;20480;-80
2022/05/04 00:17:37;;;;;;;12.88;5.78;;;;;;;;;;5051748;28;20470;-80
2022/05/04 00:20:05;;;;;;;19.25;6.68;;;;;;;;;;5031341;28;20053;-80
2022/05/04 00:22:32;;;;;;;19.98;6.85;;;;;;;;;;5034950;28;20084;-79
2022/05/04 00:24:59;;;;;;;30.60;12.10;;;;;;;;;;5051834;28;20140;-80
2022/05/04 00:27:26;;;;;;;43.60;14.05;;;;;;;;;;5033315;28;20206;-80
2022/05/04 00:29:53;;;;;;;33.92;14.95;;;;;;;;;;5057677;28;20090;-80
2022/05/04 00:32:21;;;;;;;14.98;5.53;;;;;;;;;;5071925;28;20495;-79
2022/05/04 00:34:49;;;;;;;15.82;5.50;;;;;;;;;;5062815;28;20052;-80
2022/05/04 00:37:16;;;;;;;18.23;5.57;;;;;;;;;;5062093;28;20127;-80
2022/05/04 00:39:43;;;;;;;14.80;5.60;;;;;;;;;;5072929;28;20140;-80
2022/05/04 00:42:14;;;;;;;13.50;5.43;;;;;;;;;;5070295;28;20518;-79
2022/05/04 00:44:44;;;;;;;13.82;5.40;;;;;;;;;;5049612;28;20477;-79
2022/05/04 00:47:11;;;;;;;20.10;6.18;;;;;;;;;;5070911;28;20052;-79
2022/05/04 00:49:40;;;;;;;18.13;5.70;;;;;;;;;;5071709;28;20453;-79
2022/05/04 00:52:08;;;;;;;15.60;6.57;;;;;;;;;;5053397;28;20091;-80
2022/05/04 00:54:36;;;;;;;26.60;7.05;;;;;;;;;;5048865;28;20088;-80
2022/05/04 00:57:03;;;;;;;25.88;6.50;;;;;;;;;;5053400;28;20125;-80
2022/05/04 00:59:31;;;;;;;17.20;6.60;;;;;;;;;;5052628;28;20088;-80
2022/05/04 01:01:59;;;;;;;18.25;6.78;;;;;;;;;;5072795;28;20083;-80
2022/05/04 01:04:27;;;;;;;13.88;5.82;;;;;;;;;;5076172;22;20048;-80
2022/05/04 01:06:54;;;;;;;17.63;6.32;;;;;;;;;;5079431;22;20053;-79
2022/05/04 01:09:20;;;;;;;22.35;6.22;;;;;;;;;;5067932;28;20049;-80
2022/05/04 01:11:48;;;;;;;27.75;6.65;;;;;;;;;;5060727;28;20115;-80
2022/05/04 01:14:16;;;;;;;21.58;7.20;;;;;;;;;;5069773;28;20433;-80
2022/05/04 01:16:48;;;;;;;17.73;6.53;;;;;;;;;;5071338;28;20147;-80
2022/05/04 01:19:16;;;;;;;17.77;5.93;;;;;;;;;;5034921;28;20056;-80
2022/05/04 01:21:43;;;;;;;18.17;5.85;;;;;;;;;;5053100;28;20135;-80
2022/05/04 01:24:10;;;;;;;16.08;6.15;;;;;;;;;;5071407;28;20084;-80
2022/05/04 01:26:38;;;;;;;17.98;7.00;;;;;;;;;;5042949;28;20155;-80
2022/05/04 01:29:05;;;;;;;16.13;5.43;;;;;;;;;;5051514;28;20135;-80
2022/05/04 01:31:32;;;;;;;14.57;5.80;;;;;;;;;;5049876;28;20044;-80
2022/05/04 01:34:00;;;;;;;23.25;5.47;;;;;;;;;;5033796;28;20102;-80
2022/05/04 01:36:28;;;;;;;15.75;5.82;;;;;;;;;;5042523;28;20544;-80
2022/05/04 01:38:55;;;;;;;15.55;5.55;;;;;;;;;;5053561;28;20139;-80
2022/05/04 01:44:08;;;;;;;14.23;5.72;;;;;;;;;;5065051;28;20131;-80
2022/05/04 01:46:36;;;;;;;15.95;5.60;;;;;;;;;;5046352;28;20080;-80
2022/05/04 01:49:03;;;;;;;28.70;5.32;;;;;;;;;;5052248;28;20083;-81
2022/05/04 01:51:30;;;;;;;18.25;5.22;;;;;;;;;;5070734;28;20742;-80
2022/05/04 01:53:57;;;;;;;22.35;5.72;;;;;;;;;;5070047;28;20493;-80
2022/05/04 01:56:24;;;;;;;12.98;5.25;;;;;;;;;;5069854;28;20273;-80
2022/05/04 01:58:52;;;;;;;18.63;5.80;;;;;;;;;;5070118;28;20132;-80
2022/05/04 02:01:19;;;;;;;17.17;4.88;;;;;;;;;;5065240;28;20044;-80
2022/05/04 02:03:47;;;;;;;12.75;5.43;;;;;;;;;;5053455;28;20076;-80
2022/05/04 02:06:15;;;;;;;18.67;5.82;;;;;;;;;;5068221;28;20102;-81
2022/05/04 02:08:42;;;;;;;14.57;6.13;;;;;;;;;;5032309;28;20132;-81
2022/05/04 02:11:10;;;;;;;16.95;6.20;;;;;;;;;;5049089;28;20045;-81
2022/05/04 02:13:37;;;;;;;17.42;7.25;;;;;;;;;;5032740;28;20068;-81
2022/05/04 02:16:07;;;;;;;15.90;6.03;;;;;;;;;;5034630;28;20033;-82
2022/05/04 02:18:35;;;;;;;19.27;5.25;;;;;;;;;;5049312;28;20060;-81
2022/05/04 02:21:03;;;;;;;17.92;5.75;;;;;;;;;;5027102;28;20541;-80
2022/05/04 02:23:30;;;;;;;21.85;5.07;;;;;;;;;;5029676;28;20053;-80
2022/05/04 02:25:57;;;;;;;15.57;6.20;;;;;;;;;;5035565;28;20474;-80
2022/05/04 02:28:24;;;;;;;11.88;5.63;;;;;;;;;;5032472;28;20068;-80
2022/05/04 02:30:51;;;;;;;19.75;5.28;;;;;;;;;;5049148;28;20486;-80
2022/05/04 02:33:18;;;;;;;13.85;5.60;;;;;;;;;;5050732;28;20505;-80
2022/05/04 02:38:35;;;;;;;15.27;5.63;;;;;;;;;;5032046;28;20142;-80
2022/05/04 02:41:03;;;;;;;19.88;5.88;;;;;;;;;;5032189;28;20072;-80
2022/05/04 02:43:30;;;;;;;21.77;6.38;;;;;;;;;;5050016;28;20099;-80
2022/05/04 02:45:58;;;;;;;16.52;5.30;;;;;;;;;;5063617;22;20052;-80
2022/05/04 02:51:48;;;;;;;18.45;5.78;;;;;;;;;;5028119;28;20057;-81
2022/05/04 02:54:16;;;;;;;18.33;5.63;;;;;;;;;;5025645;28;20057;-79
2022/05/04 02:56:43;;;;;;;13.18;5.95;;;;;;;;;;5029857;28;20081;-79
2022/05/04 02:59:10;;;;;;;14.60;5.10;;;;;;;;;;5030230;28;20640;-79
2022/05/04 03:04:33;;;;;;;12.90;5.13;;;;;;;;;;5030092;28;20056;-79
2022/05/04 03:07:00;;;;;;;14.43;5.82;;;;;;;;;;5012760;28;20288;-79
2022/05/04 03:09:28;;;;;;;14.23;6.25;;;;;;;;;;5012479;28;20072;-79
2022/05/04 03:11:55;;;;;;;17.45;5.72;;;;;;;;;;5030333;28;20081;-79
2022/05/04 03:14:23;;;;;;;15.15;5.95;;;;;;;;;;5029454;28;20103;-79
2022/05/04 03:16:52;;;;;;;15.07;5.93;;;;;;;;;;5028839;28;20136;-79
2022/05/04 03:19:20;;;;;;;24.27;5.95;;;;;;;;;;5029089;28;20065;-79
2022/05/04 03:21:47;;;;;;;11.23;5.25;;;;;;;;;;5029044;28;20132;-79
2022/05/04 03:24:15;;;;;;;18.45;5.18;;;;;;;;;;5032901;28;20514;-79
2022/05/04 03:26:42;;;;;;;8.82;4.88;;;;;;;;;;5033733;28;20092;-79
2022/05/04 03:29:10;;;;;;;14.55;4.70;;;;;;;;;;5032342;28;20107;-79
2022/05/04 03:31:37;;;;;;;21.70;5.63;;;;;;;;;;5027666;28;20073;-83
2022/05/04 03:34:05;;;;;;;11.35;5.13;;;;;;;;;;5034019;28;20117;-79
2022/05/04 03:36:32;;;;;;;11.90;5.63;;;;;;;;;;5032143;28;20077;-79
2022/05/04 03:39:37;;;;;;;19.95;6.15;;;;;;;;;;5033031;28;20117;-78
2022/05/04 03:42:32;;;;;;;14.40;5.82;;;;;;;;;;5018133;28;20579;-79
2022/05/04 03:44:59;;;;;;;;;;;;;;;;;;5016360;28;20050;-79
2022/05/04 03:47:27;;;;;;;15.13;5.65;;;;;;;;;;5032109;28;19963;-79
2022/05/04 03:49:56;;;;;;;20.00;5.57;;;;;;;;;;5033338;28;20148;-79
2022/05/04 03:52:23;;;;;;;15.85;5.70;;;;;;;;;;5033244;28;20049;-80
2022/05/04 03:54:50;;;;;;;27.33;6.35;;;;;;;;;;5016280;28;20083;-80
2022/05/04 03:57:17;;;;;;;12.43;5.47;;;;;;;;;;5018904;28;20166;-79
2022/05/04 03:59:45;;;;;;;9.93;4.85;;;;;;;;;;5016124;28;20577;-79
2022/05/04 04:02:12;;;;;;;17.05;6.40;;;;;;;;;;5033290;28;20132;-79
2022/05/04 04:04:39;;;;;;;26.48;6.45;;;;;;;;;;5030492;28;20124;-79
2022/05/04 04:07:06;;;;;;;15.88;5.50;;;;;;;;;;5033456;28;20072;-79
2022/05/04 04:09:33;;;;;;;24.00;5.95;;;;;;;;;;5031233;28;20080;-79
2022/05/04 04:12:01;;;;;;;12.50;5.40;;;;;;;;;;5039341;23;20710;-81
2022/05/04 04:14:28;;;;;;;13.38;5.53;;;;;;;;;;5058900;28;20191;-80
2022/05/04 04:16:55;;;;;;;14.55;5.78;;;;;;;;;;5067243;28;20563;-80
2022/05/04 04:19:22;;;;;;;13.40;5.63;;;;;;;;;;5055465;28;20165;-79
2022/05/04 04:21:53;;;;;;;15.80;6.22;;;;;;;;;;5064944;28;20052;-81
2022/05/04 04:24:21;;;;;;;25.33;5.82;;;;;;;;;;5049145;28;20079;-80
2022/05/04 04:26:48;;;;;;;17.90;5.90;;;;;;;;;;5048221;28;20135;-79
2022/05/04 04:29:16;;;;;;;14.10;5.55;;;;;;;;;;5066499;28;20080;-79
2022/05/04 04:31:43;;;;;;;10.68;4.95;;;;;;;;;;5065979;28;20557;-79
2022/05/04 04:34:10;;;;;;;24.17;6.28;;;;;;;;;;5062575;28;20135;-79
2022/05/04 04:36:40;;;;;;;26.38;5.82;;;;;;;;;;5063992;28;20051;-80
2022/05/04 04:39:07;;;;;;;17.15;5.50;;;;;;;;;;5066862;28;20585;-80
2022/05/04 04:41:34;;;;;;;19.60;6.07;;;;;;;;;;5066185;28;20426;-80
2022/05/04 04:44:01;;;;;;;13.00;4.85;;;;;;;;;;5048215;28;20413;-80
2022/05/04 04:46:29;;;;;;;22.35;5.85;;;;;;;;;;5047962;28;20056;-79
2022/05/04 04:48:58;;;;;;;17.30;6.32;;;;;;;;;;5066902;28;20045;-79
2022/05/04 04:51:25;;;;;;;16.10;5.50;;;;;;;;;;5072118;28;20049;-78
2022/05/04 04:53:52;;;;;;;21.63;7.45;;;;;;;;;;5053494;28;20127;-80
2022/05/04 04:56:20;;;;;;;15.80;6.68;;;;;;;;;;5070578;28;20148;-81
2022/05/04 04:58:47;;;;;;;19.98;6.68;;;;;;;;;;5070159;28;20130;-79
2022/05/04 05:01:14;;;;;;;33.58;6.95;;;;;;;;;;5057283;28;20158;-79
2022/05/04 05:03:41;;;;;;;22.20;6.45;;;;;;;;;;5054625;28;20067;-81
2022/05/04 05:06:11;;;;;;;16.50;5.72;;;;;;;;;;5063683;28;20712;-79
2022/05/04 05:08:41;;;;;;;26.48;7.18;;;;;;;;;;5046631;28;20076;-81
2022/05/04 05:11:08;;;;;;;20.42;6.57;;;;;;;;;;5068203;28;20080;-76
2022/05/04 05:16:06;;;;;;;18.27;6.32;;;;;;;;;;5063816;28;20061;-78
2022/05/04 05:16:23;;;;;;;18.50;6.32;;;;;;;;;;5070884;28;20072;-79
2022/05/04 05:18:50;;;;;;;17.35;6.10;;;;;;;;;;5054030;28;20053;-75
2022/05/04 05:21:18;;;;;;;27.73;7.32;;;;;;;;;;5067488;28;20649;-77
2022/05/04 05:23:45;;;;;;;22.45;7.82;;;;;;;;;;5070654;28;20516;-83
2022/05/04 05:26:12;;;;;;;22.65;7.03;;;;;;;;;;5055671;28;20068;-83
2022/05/04 05:28:39;;;;;;;23.98;7.30;;;;;;;;;;5071815;28;20087;-82
2022/05/04 05:31:07;;;;;;;31.20;8.60;;;;;;;;;;5071850;28;20044;-83
2022/05/04 05:33:34;;;;;;;21.02;6.88;;;;;;;;;;5050826;28;20402;-83
2022/05/04 05:36:01;;;;;;;22.98;7.35;;;;;;;;;;5053938;28;20759;-82
2022/05/04 05:38:28;;;;;;;20.25;7.75;;;;;;;;;;5059134;28;20728;-80
2022/05/04 05:40:55;;;;;;;25.25;7.70;;;;;;;;;;5070122;28;20079;-81
2022/05/04 05:43:23;;;;;;;17.95;7.15;;;;;;;;;;5070607;28;20136;-80
2022/05/04 05:45:50;;;;;;;28.05;8.13;;;;;;;;;;5071166;28;20131;-81
2022/05/04 05:48:19;;;;;;;25.30;8.05;;;;;;;;;;5071395;28;20059;-81
2022/05/04 05:50:47;;;;;;;18.40;7.55;;;;;;;;;;5071581;28;20155;-81
2022/05/04 05:53:15;;;;;;;18.25;7.22;;;;;;;;;;5054133;28;20090;-81
2022/05/04 05:55:42;;;;;;;22.60;7.55;;;;;;;;;;5072101;28;20584;-81
2022/05/04 05:58:12;;;;;;;24.23;7.88;;;;;;;;;;5054346;28;20082;-81
2022/05/04 06:00:39;;;;;;;24.13;7.70;;;;;;;;;;5054417;28;20459;-81
2022/05/04 06:03:07;;;;;;;21.92;8.48;;;;;;;;;;5054098;28;20131;-80
2022/05/04 06:05:34;;;;;;;28.17;9.10;;;;;;;;;;5071971;28;20088;-81
2022/05/04 06:08:01;;;;;;;24.90;8.25;;;;;;;;;;5070454;28;20052;-80
2022/05/04 06:10:29;;;;;;;13.40;6.85;;;;;;;;;;5051544;28;20056;-81
2022/05/04 06:12:56;;;;;;;31.15;7.22;;;;;;;;;;5033693;28;20056;-81
2022/05/04 06:15:23;;;;;;;27.85;6.28;;;;;;;;;;5070109;28;20133;-81
2022/05/04 06:17:50;;;;;;;22.92;7.30;;;;;;;;;;5071428;28;20101;-82
2022/05/04 06:20:17;;;;;;;27.63;6.03;;;;;;;;;;5053589;28;20049;-82
2022/05/04 06:22:45;;;;;;;27.45;7.57;;;;;;;;;;5071408;28;20052;-82
2022/05/04 06:25:12;;;;;;;19.25;5.85;;;;;;;;;;5071743;28;20098;-80
2022/05/04 06:27:39;;;;;;;20.50;6.13;;;;;;;;;;5071657;28;20074;-82
2022/05/04 06:35:39;;;;;;;17.75;5.85;;;;;;;;;;5071420;28;20826;-82
2022/05/04 06:38:11;;;;;;;22.02;6.57;;;;;;;;;;5055612;28;20056;-84
2022/05/04 06:40:38;;;;;;;27.92;5.28;;;;;;;;;;5053475;28;20543;-82
2022/05/04 06:43:05;;;;;;;19.10;6.40;;;;;;;;;;5072079;28;20690;-83
2022/05/04 06:45:32;;;;;;;19.48;5.43;;;;;;;;;;5054049;28;20140;-83
2022/05/04 06:48:02;;;;;;;16.35;5.35;;;;;;;;;;5063070;28;20488;-82
2022/05/04 06:50:29;;;;;;;14.68;5.03;;;;;;;;;;5071050;28;20045;-82
2022/05/04 06:52:57;;;;;;;21.83;5.63;;;;;;;;;;5053436;28;20084;-83
2022/05/04 06:55:24;;;;;;;12.13;5.70;;;;;;;;;;5053558;28;20084;-83
2022/05/04 06:57:51;;;;;;;16.85;5.63;;;;;;;;;;5069959;28;20091;-82
2022/05/04 07:00:19;;;;;;;19.13;5.97;;;;;;;;;;5073767;28;20106;-83
2022/05/04 07:02:46;;;;;;;18.70;5.97;;;;;;;;;;5075410;28;20128;-84
2022/05/04 07:05:13;;;;;;;15.40;5.50;;;;;;;;;;5075254;28;20141;-83
2022/05/04 07:07:41;;;;;;;16.77;6.00;;;;;;;;;;5076953;28;20076;-83
2022/05/04 07:10:08;;;;;;;18.90;5.90;;;;;;;;;;5074755;28;20072;-83
2022/05/04 07:12:36;;;;;;;14.10;5.10;;;;;;;;;;5072017;28;20396;-84
2022/05/04 07:15:03;;;;;;;14.02;4.93;;;;;;;;;;5074204;28;20110;-83
2022/05/04 07:17:31;;;;;;;12.63;5.70;;;;;;;;;;5074423;28;20168;-83
2022/05/04 07:19:58;;;;;;;15.35;5.55;;;;;;;;;;5074744;28;20121;-83
2022/05/04 07:22:25;;;;;;;20.73;5.47;;;;;;;;;;5073488;28;20159;-82
2022/05/04 07:24:53;;;;;;;11.75;4.72;;;;;;;;;;5073242;28;20155;-81
2022/05/04 07:27:20;;;;;;;10.70;4.90;;;;;;;;;;5074090;28;20072;-81
2022/05/04 07:29:47;;;;;;;10.40;4.35;;;;;;;;;;5074096;28;20044;-81
2022/05/04 07:32:16;;;;;;;11.70;4.85;;;;;;;;;;5074214;28;20052;-81
2022/05/04 07:34:44;;;;;;;21.48;4.57;;;;;;;;;;5074188;28;20053;-81
2022/05/04 07:37:11;;;;;;;15.13;4.70;;;;;;;;;;5073416;28;20185;-81
2022/05/04 07:42:25;;;;;;;13.93;4.60;;;;;;;;;;5074087;28;20052;-81
2022/05/04 07:45:06;;;;;;;17.77;4.47;;;;;;;;;;5070388;28;20048;-81
2022/05/04 07:47:35;;;;;;;7.70;4.38;;;;;;;;;;5055456;28;20168;-82
2022/05/04 07:50:03;;;;;;;13.32;4.20;;;;;;;;;;5055586;28;20202;-81
2022/05/04 07:52:30;;;;;;;12.43;5.05;;;;;;;;;;5072488;28;20125;-81
2022/05/04 07:54:58;;;;;;;13.52;4.05;;;;;;;;;;5072000;28;20072;-81
2022/05/04 07:57:25;;;;;;;10.10;4.05;;;;;;;;;;5073202;28;20079;-81
2022/05/04 08:05:26;;;;;;;17.27;4.28;;;;;;;;;;5069207;28;20141;-79
2022/05/04 08:07:53;;;;;;;14.57;4.20;;;;;;;;;;5051973;28;20131;-79
2022/05/04 08:10:20;;;;;;;11.85;4.72;;;;;;;;;;5056437;28;20098;-80
2022/05/04 08:12:48;;;;;;;21.42;4.57;;;;;;;;;;5031438;28;20079;-80
2022/05/04 08:15:15;;;;;;;14.55;4.97;;;;;;;;;;5043032;28;20123;-80
2022/05/04 08:17:42;;;;;;;11.02;3.78;;;;;;;;;;5068974;28;20048;-79
2022/05/04 08:20:10;;;;;;;14.80;3.80;;;;;;;;;;5050984;28;20416;-79
2022/05/04 08:22:38;;;;;;;7.55;3.08;;;;;;;;;;5068512;28;20076;-79
2022/05/04 08:25:05;;;;;;;10.35;4.63;;;;;;;;;;5052365;22;20533;-80
2022/05/04 08:27:33;;;;;;;13.82;4.25;;;;;;;;;;5045600;28;20081;-79
2022/05/04 08:30:00;;;;;;;12.10;3.95;;;;;;;;;;5034555;28;20486;-79
2022/05/04 08:32:30;;;;;;;11.30;3.22;;;;;;;;;;5027897;28;20053;-79
2022/05/04 08:34:58;;;;;;;13.70;4.53;;;;;;;;;;5036587;28;20788;-79
2022/05/04 08:37:29;;;;;;;12.23;3.90;;;;;;;;;;5018978;28;20057;-79
2022/05/04 08:39:56;;;;;;;9.73;4.18;;;;;;;;;;5047454;28;20088;-79
2022/05/04 08:42:24;;;;;;;15.77;3.83;;;;;;;;;;5030182;28;20148;-79
2022/05/04 08:44:58;;;;;;;16.83;3.88;;;;;;;;;;5027359;28;20144;-80
2022/05/04 08:47:28;;;;;;;13.25;3.95;;;;;;;;;;5034099;28;20052;-80
2022/05/04 08:49:55;;;;;;;12.23;3.33;;;;;;;;;;5046354;28;20049;-80
2022/05/04 08:52:23;;;;;;;17.65;4.13;;;;;;;;;;5056443;28;20131;-79
2022/05/04 08:54:50;;;;;;;9.98;4.03;;;;;;;;;;5047070;28;20140;-79
2022/05/04 08:57:17;;;;;;;17.35;4.10;;;;;;;;;;5032302;28;20482;-79
2022/05/04 08:59:45;;;;;;;15.73;3.78;;;;;;;;;;5041974;28;20141;-79
2022/05/04 09:02:12;;;;;;;14.40;3.80;;;;;;;;;;5045718;28;20148;-79
2022/05/04 09:04:42;;;;;;;16.17;4.57;;;;;;;;;;5046478;28;20775;-79
2022/05/04 09:07:26;;;;;;;13.18;3.58;;;;;;;;;;5044259;28;20524;-79
2022/05/04 09:09:54;;;;;;;15.07;3.25;;;;;;;;;;5046587;28;20118;-79
2022/05/04 09:12:22;;;;;;;13.38;3.75;;;;;;;;;;5043162;28;20795;-79
2022/05/04 09:14:50;;;;;;;13.27;3.42;;;;;;;;;;5043920;28;20493;-79
2022/05/04 09:17:17;;;;;;;15.65;4.22;;;;;;;;;;5044226;28;20132;-79
2022/05/04 09:22:43;;;;;;;10.88;3.53;;;;;;;;;;5046143;28;20100;-79
2022/05/04 09:25:18;;;;;;;14.90;3.67;;;;;;;;;;5035707;28;20084;-79
2022/05/04 09:27:45;;;;;;;;;;;;;;;;;;5025914;28;20536;-79
2022/05/04 09:30:13;;;;;;;14.45;3.92;;;;;;;;;;5039078;28;19925;-79
2022/05/04 09:32:40;;;;;;;11.77;3.63;;;;;;;;;;5046714;28;20132;-79
2022/05/04 09:35:11;;;;;;;10.90;3.65;;;;;;;;;;5046179;28;20486;-79
2022/05/04 09:45:57;;;;;;;8.15;3.72;;;;;;;;;;5041622;28;20090;-79
2022/05/04 09:48:31;;;;;;;15.68;4.18;;;;;;;;;;5026629;28;20156;-79
2022/05/04 09:51:03;;;;;;;11.67;3.87;;;;;;;;;;5039511;28;20088;-79
2022/05/04 09:53:30;;;;;;;12.88;3.92;;;;;;;;;;5026203;28;20632;-77
2022/05/04 09:55:58;;;;;;;13.27;3.92;;;;;;;;;;5025624;28;20839;-77
2022/05/04 09:58:27;;;;;;;15.02;3.85;;;;;;;;;;5026402;28;20076;-78
2022/05/04 10:00:55;;;;;;;28.88;5.03;;;;;;;;;;5038479;28;20047;-77
2022/05/04 10:03:23;;;;;;;12.27;3.85;;;;;;;;;;5024545;28;20048;-77
2022/05/04 10:05:50;;;;;;;12.73;4.05;;;;;;;;;;5033261;28;20069;-77
2022/05/04 10:08:17;;;;;;;20.00;3.85;;;;;;;;;;5040553;28;20124;-78
2022/05/04 10:10:45;;;;;;;12.55;4.15;;;;;;;;;;5042046;28;20131;-78
2022/05/04 10:13:12;;;;;;;8.93;3.58;;;;;;;;;;5044710;28;20080;-78
2022/05/04 10:15:41;;;;;;;10.30;3.40;;;;;;;;;;5043360;28;20576;-78
2022/05/04 10:18:13;;;;;;;12.25;3.50;;;;;;;;;;5037807;28;20052;-78
2022/05/04 10:21:01;;;;;;;11.38;3.15;;;;;;;;;;5045557;28;20079;-78
2022/05/04 10:23:35;;;;;;;11.18;3.55;;;;;;;;;;5022006;28;20053;-79
2022/05/04 10:26:04;;;;;;;13.82;3.90;;;;;;;;;;5012918;28;20077;-79
2022/05/04 10:28:38;;;;;;;16.33;3.17;;;;;;;;;;4989941;28;20709;-78
2022/05/04 10:31:12;;;;;;;10.48;3.47;;;;;;;;;;5001625;28;20173;-78
2022/05/04 10:33:41;;;;;;;7.38;2.75;;;;;;;;;;5005356;28;20045;-78
2022/05/04 10:39:21;;;;;;;12.63;2.55;;;;;;;;;;5024014;28;20093;-78
2022/05/04 10:41:49;;;;;;;13.50;3.63;;;;;;;;;;5026367;28;20146;-79
2022/05/04 10:44:17;;;;;;;11.00;2.92;;;;;;;;;;5025009;28;20088;-78
2022/05/04 10:46:49;;;;;;;22.75;3.55;;;;;;;;;;5032722;28;20073;-79
2022/05/04 10:49:17;;;;;;;10.35;3.10;;;;;;;;;;5009672;28;20056;-78
2022/05/04 10:51:47;;;;;;;10.40;3.17;;;;;;;;;;5006001;28;20573;-79
2022/05/04 10:54:19;;;;;;;8.90;2.35;;;;;;;;;;5005604;28;20084;-78
2022/05/04 10:56:54;;;;;;;12.18;3.03;;;;;;;;;;5009935;28;20548;-78
2022/05/04 10:59:25;;;;;;;10.13;3.10;;;;;;;;;;5024709;28;20050;-79
2022/05/04 11:01:56;;;;;;;7.90;2.00;;;;;;;;;;5024477;28;20165;-78
2022/05/04 11:04:24;;;;;;;11.80;3.20;;;;;;;;;;5025436;28;20754;-79
2022/05/04 11:06:55;;;;;;;9.80;3.10;;;;;;;;;;5026397;28;20136;-79
2022/05/04 11:09:25;;;;;;;7.50;3.17;;;;;;;;;;5025669;28;20710;-79
2022/05/04 11:11:53;;;;;;;10.07;2.90;;;;;;;;;;5013364;28;20740;-79
2022/05/04 11:14:23;;;;;;;10.60;3.38;;;;;;;;;;5018942;28;20077;-79
2022/05/04 11:16:51;;;;;;;15.32;4.00;;;;;;;;;;5025236;28;20140;-79
2022/05/04 11:19:19;;;;;;;7.65;2.83;;;;;;;;;;5037341;28;20053;-79
2022/05/04 11:21:46;;;;;;;8.60;2.22;;;;;;;;;;5026500;28;20096;-79
2022/05/04 11:24:15;;;;;;;8.65;3.33;;;;;;;;;;5026580;28;20145;-79
2022/05/04 11:26:42;;;;;;;8.68;2.85;;;;;;;;;;5024768;28;20123;-79
2022/05/04 11:29:13;;;;;;;9.98;2.90;;;;;;;;;;5023805;28;20521;-79
2022/05/04 11:31:44;;;;;;;10.50;3.00;;;;;;;;;;5024722;28;20137;-80
2022/05/04 11:34:16;;;;;;;11.52;3.15;;;;;;;;;;5026006;28;20461;-80
2022/05/04 11:36:47;;;;;;;7.57;2.22;;;;;;;;;;5025246;28;20081;-80
2022/05/04 11:39:18;;;;;;;10.85;2.65;;;;;;;;;;5024991;28;20137;-80
2022/05/04 11:41:46;;;;;;;9.45;2.63;;;;;;;;;;5026203;28;20129;-80
2022/05/04 11:44:21;;;;;;;11.65;2.60;;;;;;;;;;5029295;28;20079;-79
2022/05/04 11:46:49;;;;;;;11.30;2.88;;;;;;;;;;5029022;28;20053;-79
2022/05/04 11:49:18;;;;;;;6.60;2.55;;;;;;;;;;5023597;28;20564;-79
2022/05/04 11:51:45;;;;;;;9.05;2.88;;;;;;;;;;5009255;28;20133;-80
2022/05/04 11:54:12;;;;;;;11.32;3.17;;;;;;;;;;5011243;28;20097;-79
2022/05/04 11:56:40;;;;;;;11.63;3.22;;;;;;;;;;5021305;28;20103;-79
2022/05/04 12:02:29;;;;;;;17.10;3.65;;;;;;;;;;5051847;23;20094;-79
2022/05/04 12:04:57;;;;;;;9.38;2.97;;;;;;;;;;5050568;28;20224;-79
2022/05/04 12:07:31;;;;;;;12.27;3.33;;;;;;;;;;5049757;28;20060;-79
2022/05/04 12:09:58;;;;;;;8.20;3.80;;;;;;;;;;5032389;28;20139;-79
2022/05/04 12:12:25;;;;;;;21.63;3.60;;;;;;;;;;5036481;28;20103;-79
2022/05/04 12:14:53;;;;;;;12.25;3.38;;;;;;;;;;5032694;28;20095;-78
2022/05/04 12:17:27;;;;;;;12.82;3.40;;;;;;;;;;5032480;28;20049;-79
2022/05/04 12:19:54;;;;;;;17.42;3.63;;;;;;;;;;5032731;28;20048;-79
2022/05/04 12:25:15;;;;;;;10.13;2.97;;;;;;;;;;5005649;28;20145;-79
2022/05/04 12:27:44;;;;;;;11.82;3.40;;;;;;;;;;5009918;28;20070;-79
2022/05/04 12:33:11;;;;;;;8.48;3.53;;;;;;;;;;4990566;28;20688;-79
2022/05/04 12:35:43;;;;;;;10.45;3.63;;;;;;;;;;5002288;28;20133;-78
2022/05/04 12:38:13;;;;;;;11.93;3.83;;;;;;;;;;4988416;28;20050;-78
2022/05/04 12:40:40;;;;;;;8.27;3.67;;;;;;;;;;4992228;28;20079;-78
2022/05/04 12:43:08;;;;;;;9.93;3.80;;;;;;;;;;5002548;28;20080;-78
2022/05/04 12:45:35;;;;;;;11.93;4.18;;;;;;;;;;5001299;28;20572;-79
2022/05/04 12:48:07;;;;;;;13.48;4.20;;;;;;;;;;5009619;28;20073;-78
2022/05/04 12:50:35;;;;;;;8.65;3.35;;;;;;;;;;5007099;28;20506;-79
2022/05/04 12:53:03;;;;;;;8.40;3.60;;;;;;;;;;4990266;28;20062;-78
2022/05/04 12:58:16;;;;;;;15.77;4.15;;;;;;;;;;4989654;28;20160;-79
2022/05/04 13:00:43;;;;;;;11.90;3.95;;;;;;;;;;4988853;28;20161;-79
2022/05/04 13:03:13;;;;;;;9.90;3.92;;;;;;;;;;4989474;28;20047;-79
2022/05/04 13:05:41;;;;;;;14.00;4.55;;;;;;;;;;5001312;28;20841;-79
2022/05/04 13:08:08;;;;;;;13.70;4.10;;;;;;;;;;5001017;28;20096;-79
2022/05/04 13:10:36;;;;;;;11.35;3.65;;;;;;;;;;5005311;28;20141;-79
2022/05/04 13:13:03;;;;;;;15.20;3.75;;;;;;;;;;4988313;28;20164;-79
2022/05/04 13:15:34;;;;;;;14.00;3.90;;;;;;;;;;4989269;28;20472;-79
2022/05/04 13:18:03;;;;;;;10.02;3.90;;;;;;;;;;5000147;28;20137;-79
2022/05/04 13:20:31;;;;;;;11.25;4.18;;;;;;;;;;4997250;28;20056;-80
2022/05/04 13:22:58;;;;;;;8.40;3.50;;;;;;;;;;4990242;28;20054;-79
2022/05/04 13:25:25;;;;;;;13.13;3.95;;;;;;;;;;4988628;28;20161;-79
2022/05/04 13:27:53;;;;;;;8.38;3.83;;;;;;;;;;4988434;28;20100;-79
2022/05/04 13:30:20;;;;;;;15.48;4.90;;;;;;;;;;5002927;28;20053;-79
2022/05/04 13:32:47;;;;;;;9.80;4.40;;;;;;;;;;5007762;28;20077;-79
2022/05/04 13:35:14;;;;;;;17.73;4.35;;;;;;;;;;5007791;28;20092;-79
2022/05/04 13:37:42;;;;;;;16.15;4.00;;;;;;;;;;5007328;28;20137;-79
2022/05/04 13:40:09;;;;;;;10.57;4.20;;;;;;;;;;5007223;28;20096;-78
2022/05/04 13:42:36;;;;;;;14.77;4.03;;;;;;;;;;4998561;28;20137;-79
2022/05/04 13:45:04;;;;;;;9.25;4.35;;;;;;;;;;5009502;28;20682;-78
2022/05/04 13:47:31;;;;;;;21.80;4.38;;;;;;;;;;4992604;28;20050;-81
2022/05/04 13:49:58;;;;;;;9.18;4.55;;;;;;;;;;4999219;28;20081;-78
2022/05/04 13:55:11;;;;;;;;;;;;;;;;;;4992227;28;20146;-79
2022/05/04 13:57:38;;;;;;;11.18;3.92;;;;;;;;;;5003054;28;19975;-80
2022/05/04 14:00:06;;;;;;;14.40;5.20;;;;;;;;;;5009674;28;20137;-79
2022/05/04 14:02:33;;;;;;;11.98;4.68;;;;;;;;;;4991984;28;20077;-78
2022/05/04 14:05:00;;;;;;;10.90;4.75;;;;;;;;;;5009372;28;20046;-79
2022/05/04 14:07:28;;;;;;;15.00;4.38;;;;;;;;;;4992577;28;20088;-78
2022/05/04 14:09:55;;;;;;;12.18;4.47;;;;;;;;;;4989016;28;20124;-78
2022/05/04 14:12:22;;;;;;;10.43;3.78;;;;;;;;;;5004181;28;20096;-78
2022/05/04 14:15:01;;;;;;;17.17;4.50;;;;;;;;;;5008766;28;20145;-78
2022/05/04 14:17:29;;;;;;;19.25;4.97;;;;;;;;;;5007782;28;20045;-78
2022/05/04 14:19:56;;;;;;;7.57;3.92;;;;;;;;;;5008504;28;20108;-78
2022/05/04 14:22:23;;;;;;;15.48;4.47;;;;;;;;;;5008189;28;20046;-78
2022/05/04 14:24:50;;;;;;;14.40;3.47;;;;;;;;;;5008225;28;20140;-78
2022/05/04 14:27:18;;;;;;;14.32;5.18;;;;;;;;;;5007447;28;20060;-78
2022/05/04 14:29:45;;;;;;;13.15;5.63;;;;;;;;;;5006529;28;20135;-81
2022/05/04 14:32:12;;;;;;;15.60;4.63;;;;;;;;;;4991754;28;20088;-80
2022/05/04 14:34:40;;;;;;;17.38;4.43;;;;;;;;;;4999702;28;20061;-79
2022/05/04 14:37:07;;;;;;;14.35;4.03;;;;;;;;;;5006979;28;20077;-78
2022/05/04 14:39:34;;;;;;;23.38;4.32;;;;;;;;;;5008785;28;20141;-78
2022/05/04 14:42:01;;;;;;;13.48;4.00;;;;;;;;;;4993626;28;20137;-78
2022/05/04 14:44:29;;;;;;;10.35;4.22;;;;;;;;;;4988975;28;20053;-80
2022/05/04 14:46:57;;;;;;;9.20;3.95;;;;;;;;;;4989039;28;20101;-78
2022/05/04 14:49:24;;;;;;;11.90;4.28;;;;;;;;;;4988407;28;20086;-78
2022/05/04 14:51:51;;;;;;;13.68;4.28;;;;;;;;;;5001595;28;20073;-80
2022/05/04 14:54:21;;;;;;;14.25;4.32;;;;;;;;;;5007064;28;20105;-80
2022/05/04 14:56:50;;;;;;;12.50;4.63;;;;;;;;;;5006978;28;20191;-77
2022/05/04 14:59:17;;;;;;;13.35;4.75;;;;;;;;;;5008340;28;20042;-78
2022/05/04 15:01:45;;;;;;;17.80;4.53;;;;;;;;;;5007091;28;20088;-77
2022/05/04 15:06:59;;;;;;;13.93;5.05;;;;;;;;;;5007946;28;20050;-77
2022/05/04 15:09:26;;;;;;;15.60;4.25;;;;;;;;;;5008332;28;20152;-77
2022/05/04 15:11:53;;;;;;;10.55;4.78;;;;;;;;;;4995797;28;20166;-77
2022/05/04 15:14:21;;;;;;;16.98;5.40;;;;;;;;;;4988231;28;20133;-77
2022/05/04 15:16:48;;;;;;;15.70;5.40;;;;;;;;;;4998444;28;20808;-78
2022/05/04 15:19:15;;;;;;;12.10;4.85;;;;;;;;;;5010975;28;20108;-80
2022/05/04 15:21:43;;;;;;;15.18;4.85;;;;;;;;;;5009760;28;20493;-77
2022/05/04 15:24:10;;;;;;;9.95;4.97;;;;;;;;;;5007648;28;20054;-78
2022/05/04 15:26:38;;;;;;;9.43;4.55;;;;;;;;;;5004024;28;20137;-78
2022/05/04 15:29:05;;;;;;;21.75;5.55;;;;;;;;;;4994321;28;20054;-77
2022/05/04 15:31:33;;;;;;;17.92;5.13;;;;;;;;;;4987211;28;20137;-78
2022/05/04 15:34:00;;;;;;;17.90;4.93;;;;;;;;;;4994086;28;20569;-77
2022/05/04 15:36:27;;;;;;;15.93;3.63;;;;;;;;;;5004347;28;20510;-77